createdAt,value
2022-10-12T00:00:55.838Z,99303.97
2022-10-12T00:03:57.882Z,99296.75
2022-10-12T00:06:59.935Z,99293.91
2022-10-12T00:10:02.135Z,99298.00
2022-10-12T00:13:04.199Z,99295.75
2022-10-12T00:16:07.514Z,99293.94
2022-10-12T00:19:12.763Z,99286.44
2022-10-12T00:22:14.824Z,99293.19
2022-10-12T00:25:16.905Z,99288.13
2022-10-12T00:28:18.989Z,99282.59
2022-10-12T00:31:21.696Z,99282.97
2022-10-12T00:34:23.755Z,99285.09
2022-10-12T00:37:25.831Z,99280.28
2022-10-12T00:40:27.919Z,99279.28
2022-10-12T00:43:36.181Z,99269.22
2022-10-12T00:46:44.962Z,99262.88
2022-10-12T00:49:51.826Z,99263.91
2022-10-12T00:53:14.303Z,99252.84
2022-10-12T00:56:20.043Z,99251.69
2022-10-12T00:59:28.694Z,99245.34
2022-10-12T01:02:30.860Z,99246.22
2022-10-12T01:05:33.018Z,99243.16
2022-10-12T01:08:35.103Z,99244.72
2022-10-12T01:11:37.207Z,99243.47
2022-10-12T01:14:39.255Z,99237.16
2022-10-12T01:18:05.611Z,99238.63
2022-10-12T01:21:21.002Z,99229.44
2022-10-12T01:24:35.813Z,99226.91
2022-10-12T01:27:49.757Z,99220.16
2022-10-12T01:30:55.542Z,99216.13
2022-10-12T01:34:02.203Z,99217.06
2022-10-12T01:37:19.042Z,99205.03
2022-10-12T01:40:30.000Z,99202.34
2022-10-12T01:43:41.192Z,99195.09
2022-10-12T01:46:43.694Z,99189.53
2022-10-12T01:49:45.821Z,99178.34
2022-10-12T01:53:25.691Z,99169.97
2022-10-12T01:56:39.348Z,99170.59
2022-10-12T02:00:13.711Z,99169.09
2022-10-12T02:03:38.106Z,99149.59
2022-10-12T02:06:51.503Z,99144.69
2022-10-12T02:09:54.339Z,99139.09
2022-10-12T02:12:57.047Z,99135.31
2022-10-12T02:15:59.374Z,99130.22
2022-10-12T02:19:01.696Z,99121.84
2022-10-12T02:22:05.948Z,99130.66
2022-10-12T02:25:11.206Z,99121.19
2022-10-12T02:28:15.528Z,99117.38
2022-10-12T02:31:47.811Z,99116.19
2022-10-12T02:35:06.000Z,99108.50
2022-10-12T02:38:13.810Z,99096.22
2022-10-12T02:41:28.346Z,99095.94
2022-10-12T02:44:32.986Z,99086.22
2022-10-12T02:47:40.309Z,99082.78
2022-10-12T02:50:42.558Z,99090.41
2022-10-12T02:53:45.351Z,99084.09
2022-10-12T02:56:47.615Z,99079.84
2022-10-12T02:59:49.719Z,99072.34
2022-10-12T03:02:51.755Z,99071.78
2022-10-12T03:05:53.900Z,99071.00
2022-10-12T03:08:57.285Z,99070.97
2022-10-12T03:11:59.343Z,99065.25
2022-10-12T03:15:01.382Z,99065.13
2022-10-12T03:18:03.550Z,99074.75
2022-10-12T03:21:05.911Z,99068.31
2022-10-12T03:24:07.996Z,99070.91
2022-10-12T03:27:10.066Z,99062.81
2022-10-12T03:30:12.688Z,99067.03
2022-10-12T03:33:14.739Z,99061.88
2022-10-12T03:36:16.799Z,99064.03
2022-10-12T03:39:18.826Z,99052.31
2022-10-12T03:42:20.875Z,99052.72
2022-10-12T03:45:22.990Z,99049.88
2022-10-12T03:48:25.029Z,99048.75
2022-10-12T03:51:27.508Z,99048.88
2022-10-12T03:54:29.583Z,99045.16
2022-10-12T03:57:31.630Z,99045.91
2022-10-12T04:00:33.712Z,99028.94
2022-10-12T04:03:36.611Z,99030.72
2022-10-12T04:06:38.683Z,99029.41
2022-10-12T04:09:40.746Z,99029.78
2022-10-12T04:12:42.800Z,99016.47
2022-10-12T04:15:44.901Z,99006.91
2022-10-12T04:18:46.982Z,99004.00
2022-10-12T04:21:49.077Z,99001.97
2022-10-12T04:24:51.321Z,99001.00
2022-10-12T04:27:53.381Z,98982.47
2022-10-12T04:30:55.450Z,98988.22
2022-10-12T04:33:57.863Z,98988.44
2022-10-12T04:36:59.898Z,98978.59
2022-10-12T04:40:01.940Z,98976.28
2022-10-12T04:43:04.010Z,98977.34
2022-10-12T04:46:06.334Z,98967.03
2022-10-12T04:49:08.367Z,98967.50
2022-10-12T04:52:10.386Z,98969.91
2022-10-12T04:55:12.428Z,98967.84
2022-10-12T04:58:14.495Z,98970.44
2022-10-12T05:01:16.680Z,98964.25
2022-10-12T05:04:18.927Z,98966.81
2022-10-12T05:07:20.994Z,98954.19
2022-10-12T05:10:23.131Z,98946.69
2022-10-12T05:13:26.479Z,98950.84
2022-10-12T05:16:28.561Z,98945.38
2022-10-12T05:19:30.599Z,98940.22
2022-10-12T05:22:32.649Z,98925.28
2022-10-12T05:25:35.384Z,98922.88
2022-10-12T05:28:41.090Z,98914.19
2022-10-12T05:31:43.651Z,98901.94
2022-10-12T05:34:46.130Z,98912.69
2022-10-12T05:37:48.177Z,98910.53
2022-10-12T05:40:50.230Z,98902.47
2022-10-12T05:43:53.648Z,98906.41
2022-10-12T05:46:55.812Z,98923.38
2022-10-12T05:49:57.943Z,98909.81
2022-10-12T05:53:00.062Z,98891.22
2022-10-12T05:56:02.195Z,98883.31
2022-10-12T05:59:04.354Z,98874.88
2022-10-12T06:02:06.557Z,98871.06
2022-10-12T06:05:08.887Z,98877.72
2022-10-12T06:08:11.133Z,98871.56
2022-10-12T06:11:13.738Z,98883.38
2022-10-12T06:14:15.898Z,98875.34
2022-10-12T06:17:18.042Z,98887.94
2022-10-12T06:20:20.160Z,98874.91
2022-10-12T06:23:22.299Z,98880.09
2022-10-12T06:26:25.010Z,98870.00
2022-10-12T06:29:27.115Z,98868.03
2022-10-12T06:32:29.216Z,98871.75
2022-10-12T06:35:31.331Z,98863.59
2022-10-12T06:38:33.422Z,98865.91
2022-10-12T06:41:35.508Z,98875.34
2022-10-12T06:44:43.359Z,98865.44
2022-10-12T06:47:45.810Z,98864.69
2022-10-12T06:50:47.874Z,98868.09
2022-10-12T06:53:49.919Z,98867.59
2022-10-12T06:56:55.420Z,98859.78
2022-10-12T07:00:00.626Z,98852.25
2022-10-12T07:03:02.745Z,98852.97
2022-10-12T07:06:09.207Z,98857.88
2022-10-12T07:09:11.299Z,98835.06
2022-10-12T07:12:13.476Z,98821.38
2022-10-12T07:15:15.711Z,98826.44
2022-10-12T07:18:17.879Z,98826.94
2022-10-12T07:21:19.959Z,98828.22
2022-10-12T07:24:22.023Z,98825.75
2022-10-12T07:27:24.191Z,98819.31
2022-10-12T07:30:26.301Z,98817.38
2022-10-12T07:33:31.564Z,98824.59
2022-10-12T07:36:57.520Z,98811.91
2022-10-12T07:39:57.671Z,98809.25
2022-10-12T07:43:15.241Z,98812.81
2022-10-12T07:46:18.409Z,98810.63
2022-10-12T07:49:21.674Z,98828.72
2022-10-12T07:52:23.778Z,98848.66
2022-10-12T07:55:26.049Z,98853.50
2022-10-12T07:58:28.575Z,98838.59
2022-10-12T08:01:31.127Z,98852.59
2022-10-12T08:04:33.375Z,98846.91
2022-10-12T08:07:35.758Z,98839.25
2022-10-12T08:10:38.068Z,98838.44
2022-10-12T08:13:40.306Z,98831.56
2022-10-12T08:16:45.754Z,98822.13
2022-10-12T08:19:48.171Z,98808.41
2022-10-12T08:22:50.304Z,98803.22
2022-10-12T08:25:56.760Z,98801.38
2022-10-12T08:28:59.063Z,98797.63
2022-10-12T08:32:02.155Z,98799.63
2022-10-12T08:35:05.508Z,98795.22
2022-10-12T08:38:09.105Z,98809.28
2022-10-12T08:41:52.326Z,98823.72
2022-10-12T08:45:06.468Z,98828.94
2022-10-12T08:48:14.435Z,98830.41
2022-10-12T08:51:22.672Z,98835.94
2022-10-12T08:54:30.782Z,98826.41
2022-10-12T08:57:34.701Z,98826.84
2022-10-12T09:00:36.750Z,98828.00
2022-10-12T09:04:01.952Z,98819.09
2022-10-12T09:07:16.967Z,98820.28
2022-10-12T09:10:49.863Z,98803.34
2022-10-12T09:14:17.939Z,98807.50
2022-10-12T09:17:53.808Z,98803.88
2022-10-12T09:20:55.856Z,98804.59
2022-10-12T09:23:58.064Z,98809.75
2022-10-12T09:27:01.198Z,98805.38
2022-10-12T09:30:04.602Z,98808.13
2022-10-12T09:33:25.611Z,98796.69
2022-10-12T09:36:31.319Z,98812.78
2022-10-12T09:39:35.632Z,98798.06
2022-10-12T09:42:37.885Z,98785.84
2022-10-12T09:45:40.046Z,98785.59
2022-10-12T09:48:58.057Z,98801.09
2022-10-12T09:52:00.406Z,98798.34
2022-10-12T09:55:14.865Z,98808.75
2022-10-12T09:58:19.520Z,98801.97
2022-10-12T10:01:23.408Z,98816.78
2022-10-12T10:04:26.727Z,98795.03
2022-10-12T10:07:35.221Z,98804.00
2022-10-12T10:10:37.313Z,98791.53
2022-10-12T10:13:39.421Z,98782.94
2022-10-12T10:16:51.157Z,98772.50
2022-10-12T10:19:54.526Z,98782.41
2022-10-12T10:22:56.611Z,98783.06
2022-10-12T10:26:15.110Z,98786.19
2022-10-12T10:29:40.698Z,98788.78
2022-10-12T10:32:46.292Z,98792.28
2022-10-12T10:36:00.262Z,98792.09
2022-10-12T10:39:08.062Z,98786.50
2022-10-12T10:42:21.205Z,98777.97
2022-10-12T10:45:32.374Z,98773.84
2022-10-12T10:49:02.014Z,98772.31
2022-10-12T10:52:04.721Z,98771.00
2022-10-12T10:55:25.744Z,98765.97
2022-10-12T10:58:49.011Z,98762.72
2022-10-12T11:01:58.908Z,98758.78
2022-10-12T11:05:08.008Z,98759.28
2022-10-12T11:08:33.246Z,98769.72
2022-10-12T11:11:36.852Z,98767.22
2022-10-12T11:14:49.086Z,98762.41
2022-10-12T11:18:16.070Z,98769.47
2022-10-12T11:21:31.325Z,98768.56
2022-10-12T11:25:03.458Z,98768.66
2022-10-12T11:28:08.095Z,98779.00
2022-10-12T11:31:23.675Z,98777.63
2022-10-12T11:34:26.186Z,98791.38
2022-10-12T11:37:59.555Z,98780.72
2022-10-12T11:41:34.868Z,98777.72
2022-10-12T11:44:42.339Z,98779.81
2022-10-12T11:47:47.212Z,98767.66
2022-10-12T11:50:49.724Z,98763.13
2022-10-12T11:54:14.375Z,98760.66
2022-10-12T11:57:30.072Z,98762.25
2022-10-12T12:01:03.094Z,98757.47
2022-10-12T12:07:56.628Z,98741.13
2022-10-12T12:11:18.693Z,98747.53
2022-10-12T12:14:26.766Z,98756.53
2022-10-12T12:17:32.306Z,98746.06
2022-10-12T12:20:43.591Z,98748.91
2022-10-12T12:23:53.824Z,98756.84
2022-10-12T12:26:55.970Z,98766.22
2022-10-12T12:29:59.091Z,98744.19
2022-10-12T12:33:21.249Z,98738.53
2022-10-12T12:36:34.002Z,98739.13
2022-10-12T12:39:36.113Z,98744.94
2022-10-12T12:42:38.214Z,98742.59
2022-10-12T12:45:41.505Z,98738.97
2022-10-12T12:48:43.466Z,98734.09
2022-10-12T12:51:45.516Z,98727.09
2022-10-12T12:55:09.906Z,98735.78
2022-10-12T12:58:48.272Z,98737.88
2022-10-12T13:02:38.920Z,98729.53
2022-10-12T13:06:05.389Z,98731.53
2022-10-12T13:09:39.663Z,98734.63
2022-10-12T13:12:56.333Z,98725.38
2022-10-12T13:17:30.065Z,98730.47
2022-10-12T13:19:58.151Z,98714.25
2022-10-12T13:23:03.039Z,98707.31
2022-10-12T13:26:07.574Z,98711.44
2022-10-12T13:29:36.855Z,98715.97
2022-10-12T13:33:17.562Z,98709.22
2022-10-12T13:37:00.179Z,98687.53
2022-10-12T13:40:04.489Z,98692.88
2022-10-12T13:43:27.156Z,98685.28
2022-10-12T13:46:48.610Z,98690.81
2022-10-12T13:49:50.824Z,98705.28
2022-10-12T13:52:55.894Z,98701.72
2022-10-12T13:56:01.700Z,98695.78
2022-10-12T13:59:07.007Z,98698.91
2022-10-12T14:02:25.468Z,98704.69
2022-10-12T14:05:29.777Z,98691.44
2022-10-12T14:08:33.076Z,98691.44
2022-10-12T14:11:35.211Z,98685.75
2022-10-12T14:14:37.595Z,98690.91
2022-10-12T14:17:47.754Z,98690.06
2022-10-12T14:20:49.888Z,98693.53
2022-10-12T14:23:59.751Z,98708.41
2022-10-12T14:27:03.936Z,98716.63
2022-10-12T14:30:24.687Z,98703.66
2022-10-12T14:33:27.099Z,98710.84
2022-10-12T14:36:29.179Z,98718.47
2022-10-12T14:39:31.379Z,98696.16
2022-10-12T14:42:35.630Z,98704.72
2022-10-12T14:45:37.753Z,98706.19
2022-10-12T14:48:39.872Z,98692.44
2022-10-12T14:51:41.938Z,98697.47
2022-10-12T14:54:44.098Z,98689.41
2022-10-12T14:57:46.683Z,98691.13
2022-10-12T15:00:49.202Z,98695.00
2022-10-12T15:03:51.476Z,98690.56
2022-10-12T15:06:53.598Z,98691.34
2022-10-12T15:09:55.752Z,98704.66
2022-10-12T15:12:57.876Z,98693.59
2022-10-12T15:16:00.678Z,98707.88
2022-10-12T15:19:02.739Z,98683.06
2022-10-12T15:22:04.991Z,98690.47
2022-10-12T15:25:37.818Z,98701.56
2022-10-12T15:28:40.041Z,98696.03
2022-10-12T15:31:42.183Z,98699.41
2022-10-12T15:34:44.423Z,98698.06
2022-10-12T15:37:46.759Z,98712.72
2022-10-12T15:40:51.039Z,98709.84
2022-10-12T15:43:53.137Z,98704.22
2022-10-12T15:46:55.319Z,98707.63
2022-10-12T15:49:57.373Z,98699.41
2022-10-12T15:52:59.445Z,98696.06
2022-10-12T15:56:01.628Z,98692.59
2022-10-12T15:59:03.963Z,98703.03
2022-10-12T16:02:11.211Z,98708.59
2022-10-12T16:05:42.790Z,98704.25
2022-10-12T16:08:44.843Z,98714.16
2022-10-12T16:11:46.898Z,98703.66
2022-10-12T16:14:48.962Z,98709.06
2022-10-12T16:17:51.426Z,98707.41
2022-10-12T16:20:54.159Z,98700.38
2022-10-12T16:23:56.415Z,98701.66
2022-10-12T16:26:58.494Z,98712.72
2022-10-12T16:30:00.568Z,98711.75
2022-10-12T16:33:02.662Z,98717.13
2022-10-12T16:36:15.647Z,98713.56
2022-10-12T16:39:17.709Z,98701.94
2022-10-12T16:42:20.396Z,98705.50
2022-10-12T16:45:23.016Z,98703.34
2022-10-12T16:48:25.123Z,98707.09
2022-10-12T16:51:27.211Z,98706.00
2022-10-12T16:54:29.366Z,98706.31
2022-10-12T16:57:31.615Z,98711.38
2022-10-12T17:00:33.746Z,98706.63
2022-10-12T17:03:35.859Z,98718.00
2022-10-12T17:06:37.929Z,98721.22
2022-10-12T17:09:39.982Z,98715.56
2022-10-12T17:12:42.065Z,98719.28
2022-10-12T17:15:44.138Z,98724.66
2022-10-12T17:18:46.189Z,98726.66
2022-10-12T17:21:48.456Z,98728.66
2022-10-12T17:24:50.568Z,98737.00
2022-10-12T17:27:52.719Z,98739.41
2022-10-12T17:30:54.869Z,98739.78
2022-10-12T17:33:58.305Z,98745.84
2022-10-12T17:37:01.231Z,98743.66
2022-10-12T17:40:03.441Z,98742.41
2022-10-12T17:43:05.494Z,98746.38
2022-10-12T17:46:07.625Z,98743.00
2022-10-12T17:49:15.533Z,98751.72
2022-10-12T17:52:17.928Z,98744.13
2022-10-12T17:55:43.323Z,98751.44
2022-10-12T17:58:42.530Z,98751.56
2022-10-12T18:01:44.615Z,98755.72
2022-10-12T18:04:46.659Z,98753.16
2022-10-12T18:07:48.743Z,98751.78
2022-10-12T18:10:50.801Z,98748.44
2022-10-12T18:13:54.831Z,98752.66
2022-10-12T18:16:58.721Z,98766.34
2022-10-12T18:20:01.116Z,98775.06
2022-10-12T18:23:03.271Z,98772.88
2022-10-12T18:26:07.042Z,98782.78
2022-10-12T18:29:09.182Z,98792.34
2022-10-12T18:32:12.583Z,98800.13
2022-10-12T18:35:14.713Z,98801.94
2022-10-12T18:38:17.086Z,98810.00
2022-10-12T18:41:26.841Z,98809.97
2022-10-12T18:44:28.939Z,98808.41
2022-10-12T18:47:30.983Z,98803.78
2022-10-12T18:50:35.834Z,98811.38
2022-10-12T18:53:37.937Z,98807.84
2022-10-12T18:56:40.447Z,98812.84
2022-10-12T18:59:42.620Z,98813.97
2022-10-12T19:02:44.773Z,98816.59
2022-10-12T19:05:46.827Z,98814.50
2022-10-12T19:08:49.430Z,98819.47
2022-10-12T19:11:51.478Z,98811.09
2022-10-12T19:14:53.621Z,98807.41
2022-10-12T19:17:55.682Z,98809.94
2022-10-12T19:20:57.761Z,98812.34
2022-10-12T19:24:03.707Z,98825.59
2022-10-12T19:27:05.825Z,98804.41
2022-10-12T19:30:09.257Z,98803.84
2022-10-12T19:33:11.645Z,98805.22
2022-10-12T19:36:20.701Z,98816.63
2022-10-12T19:39:23.711Z,98816.31
2022-10-12T19:42:26.237Z,98824.56
2022-10-12T19:45:28.832Z,98818.53
2022-10-12T19:48:31.208Z,98815.13
2022-10-12T19:51:33.923Z,98816.81
2022-10-12T19:54:36.424Z,98810.50
2022-10-12T19:57:38.963Z,98809.44
2022-10-12T20:00:41.127Z,98801.03
2022-10-12T20:03:47.611Z,98810.66
2022-10-12T20:06:50.107Z,98812.41
2022-10-12T20:09:52.169Z,98818.50
2022-10-12T20:12:54.250Z,98830.34
2022-10-12T20:15:56.747Z,98838.69
2022-10-12T20:18:58.844Z,98843.28
2022-10-12T20:22:00.927Z,98843.44
2022-10-12T20:25:06.986Z,98830.22
2022-10-12T20:28:11.820Z,98834.34
2022-10-12T20:31:14.145Z,98836.44
2022-10-12T20:34:16.259Z,98835.41
2022-10-12T20:37:18.790Z,98845.41
2022-10-12T20:40:21.032Z,98851.50
2022-10-12T20:43:23.079Z,98849.38
2022-10-12T20:46:25.334Z,98848.78
2022-10-12T20:49:27.391Z,98840.50
2022-10-12T20:52:29.629Z,98840.72
2022-10-12T20:55:31.818Z,98839.97
2022-10-12T20:58:34.014Z,98836.31
2022-10-12T21:01:36.127Z,98854.94
2022-10-12T21:04:38.590Z,98855.84
2022-10-12T21:07:40.666Z,98857.69
2022-10-12T21:10:47.545Z,98852.16
2022-10-12T21:13:49.744Z,98854.16
2022-10-12T21:16:52.318Z,98853.56
2022-10-12T21:19:54.367Z,98850.25
2022-10-12T21:22:56.490Z,98861.94
2022-10-12T21:25:58.546Z,98869.84
2022-10-12T21:29:00.683Z,98874.19
2022-10-12T21:32:02.745Z,98867.97
2022-10-12T21:35:05.293Z,98873.38
2022-10-12T21:38:07.394Z,98871.63
2022-10-12T21:41:11.122Z,98873.97
2022-10-12T21:44:13.244Z,98876.03
2022-10-12T21:47:18.256Z,98883.53
2022-10-12T21:50:20.595Z,98875.06
2022-10-12T21:53:22.695Z,98890.00
2022-10-12T21:56:27.061Z,98887.22
2022-10-12T21:59:29.238Z,98875.44
2022-10-12T22:02:31.268Z,98875.81
2022-10-12T22:05:39.767Z,98877.50
2022-10-12T22:08:42.263Z,98876.84
2022-10-12T22:11:49.343Z,98882.84
2022-10-12T22:14:51.393Z,98872.06
2022-10-12T22:17:53.499Z,98881.09
2022-10-12T22:20:55.571Z,98881.97
2022-10-12T22:23:58.444Z,98892.22
2022-10-12T22:27:01.389Z,98887.75
2022-10-12T22:30:03.883Z,98893.13
2022-10-12T22:33:05.932Z,98891.34
2022-10-12T22:36:10.261Z,98891.47
2022-10-12T22:39:12.367Z,98896.00
2022-10-12T22:42:18.058Z,98896.56
2022-10-12T22:45:24.472Z,98896.25
2022-10-12T22:48:29.350Z,98886.50
2022-10-12T22:51:33.955Z,98889.19
2022-10-12T22:54:36.138Z,98893.00
2022-10-12T22:57:38.295Z,98895.81
2022-10-12T23:00:40.621Z,98899.69
2022-10-12T23:03:42.870Z,98898.94
2022-10-12T23:06:45.032Z,98906.06
2022-10-12T23:09:48.713Z,98889.63
2022-10-12T23:12:50.909Z,98889.69
2022-10-12T23:15:52.976Z,98899.47
2022-10-12T23:19:00.327Z,98892.75
2022-10-12T23:22:02.381Z,98903.03
2022-10-12T23:25:04.904Z,98896.53
2022-10-12T23:28:06.981Z,98897.03
2022-10-12T23:31:10.617Z,98892.59
2022-10-12T23:34:13.010Z,98897.50
2022-10-12T23:37:15.085Z,98896.88
2022-10-12T23:40:18.756Z,98902.81
2022-10-12T23:43:20.970Z,98903.84
2022-10-12T23:46:23.091Z,98903.84
2022-10-12T23:49:26.647Z,98906.16
2022-10-12T23:52:36.246Z,98912.97
2022-10-12T23:55:38.407Z,98921.09
2022-10-12T23:58:40.787Z,98917.22
